sensor_id;sensor_type;location;lat;lon;timestamp;P1;durP1;ratioP1;P2;durP2;ratioP2
59974;SDS011;62136;-35.664;-63.766;2023-12-20T00:01:37;1.83;;;1.10;;
59974;SDS011;62136;-35.664;-63.766;2023-12-20T00:04:04;3.25;;;1.00;;
59974;SDS011;62136;-35.664;-63.766;2023-12-20T00:06:32;1.88;;;1.30;;
59974;SDS011;62136;-35.664;-63.766;2023-12-20T00:08:59;3.25;;;1.80;;
59974;SDS011;62136;-35.664;-63.766;2023-12-20T00:11:26;2.92;;;1.30;;
59974;SDS011;62136;-35.664;-63.766;2023-12-20T00:13:56;3.08;;;1.30;;
59974;SDS011;62136;-35.664;-63.766;2023-12-20T00:16:23;3.03;;;1.30;;
59974;SDS011;62136;-35.664;-63.766;2023-12-20T00:18:50;1.88;;;0.90;;
59974;SDS011;62136;-35.664;-63.766;2023-12-20T00:21:17;3.05;;;1.17;;
59974;SDS011;62136;-35.664;-63.766;2023-12-20T00:23:44;3.45;;;1.25;;
59974;SDS011;62136;-35.664;-63.766;2023-12-20T00:26:10;3.63;;;1.23;;
59974;SDS011;62136;-35.664;-63.766;2023-12-20T00:28:38;2.17;;;1.30;;
59974;SDS011;62136;-35.664;-63.766;2023-12-20T00:31:05;2.47;;;1.05;;
59974;SDS011;62136;-35.664;-63.766;2023-12-20T00:33:32;3.15;;;1.45;;
59974;SDS011;62136;-35.664;-63.766;2023-12-20T00:35:59;3.03;;;1.40;;
59974;SDS011;62136;-35.664;-63.766;2023-12-20T00:38:26;3.90;;;1.58;;
59974;SDS011;62136;-35.664;-63.766;2023-12-20T00:43:18;2.72;;;1.38;;
59974;SDS011;62136;-35.664;-63.766;2023-12-20T00:45:45;3.20;;;1.13;;
59974;SDS011;62136;-35.664;-63.766;2023-12-20T00:48:12;5.00;;;1.17;;
59974;SDS011;62136;-35.664;-63.766;2023-12-20T00:50:39;1.90;;;1.00;;
59974;SDS011;62136;-35.664;-63.766;2023-12-20T00:53:06;2.13;;;0.90;;
59974;SDS011;62136;-35.664;-63.766;2023-12-20T00:55:33;3.10;;;1.20;;
59974;SDS011;62136;-35.664;-63.766;2023-12-20T00:57:59;2.38;;;1.20;;
59974;SDS011;62136;-35.664;-63.766;2023-12-20T01:00:26;2.03;;;0.90;;
59974;SDS011;62136;-35.664;-63.766;2023-12-20T01:02:53;3.97;;;1.30;;
59974;SDS011;62136;-35.664;-63.766;2023-12-20T01:05:20;3.35;;;1.33;;
59974;SDS011;62136;-35.664;-63.766;2023-12-20T01:07:50;2.53;;;1.05;;
59974;SDS011;62136;-35.664;-63.766;2023-12-20T01:10:17;1.85;;;1.00;;
59974;SDS011;62136;-35.664;-63.766;2023-12-20T01:12:44;2.58;;;1.38;;
59974;SDS011;62136;-35.664;-63.766;2023-12-20T01:15:11;1.80;;;1.30;;
59974;SDS011;62136;-35.664;-63.766;2023-12-20T01:17:38;2.08;;;1.30;;
59974;SDS011;62136;-35.664;-63.766;2023-12-20T01:20:05;2.80;;;1.27;;
59974;SDS011;62136;-35.664;-63.766;2023-12-20T01:22:33;2.85;;;1.48;;
59974;SDS011;62136;-35.664;-63.766;2023-12-20T01:25:01;2.30;;;1.20;;
59974;SDS011;62136;-35.664;-63.766;2023-12-20T01:27:28;2.83;;;1.27;;
59974;SDS011;62136;-35.664;-63.766;2023-12-20T01:29:56;2.75;;;1.35;;
59974;SDS011;62136;-35.664;-63.766;2023-12-20T01:32:23;4.13;;;1.27;;
59974;SDS011;62136;-35.664;-63.766;2023-12-20T01:34:50;3.90;;;1.40;;
59974;SDS011;62136;-35.664;-63.766;2023-12-20T01:37:17;3.38;;;1.20;;
59974;SDS011;62136;-35.664;-63.766;2023-12-20T01:39:44;2.90;;;1.30;;
59974;SDS011;62136;-35.664;-63.766;2023-12-20T01:42:11;1.85;;;1.08;;
59974;SDS011;62136;-35.664;-63.766;2023-12-20T01:44:38;1.30;;;1.02;;
59974;SDS011;62136;-35.664;-63.766;2023-12-20T01:47:05;2.60;;;1.30;;
59974;SDS011;62136;-35.664;-63.766;2023-12-20T01:49:32;3.05;;;1.35;;
59974;SDS011;62136;-35.664;-63.766;2023-12-20T01:52:00;3.60;;;1.30;;
59974;SDS011;62136;-35.664;-63.766;2023-12-20T01:54:27;3.72;;;1.27;;
59974;SDS011;62136;-35.664;-63.766;2023-12-20T01:56:54;3.13;;;1.40;;
59974;SDS011;62136;-35.664;-63.766;2023-12-20T01:59:22;1.67;;;1.15;;
59974;SDS011;62136;-35.664;-63.766;2023-12-20T02:01:49;5.38;;;1.60;;
59974;SDS011;62136;-35.664;-63.766;2023-12-20T02:04:16;2.38;;;1.30;;
59974;SDS011;62136;-35.664;-63.766;2023-12-20T02:06:43;3.88;;;1.90;;
59974;SDS011;62136;-35.664;-63.766;2023-12-20T02:09:12;3.70;;;1.40;;
59974;SDS011;62136;-35.664;-63.766;2023-12-20T02:11:39;2.65;;;1.48;;
59974;SDS011;62136;-35.664;-63.766;2023-12-20T02:14:07;2.85;;;1.73;;
59974;SDS011;62136;-35.664;-63.766;2023-12-20T02:16:34;2.85;;;1.50;;
59974;SDS011;62136;-35.664;-63.766;2023-12-20T02:19:02;2.17;;;1.30;;
59974;SDS011;62136;-35.664;-63.766;2023-12-20T02:21:32;2.10;;;1.23;;
59974;SDS011;62136;-35.664;-63.766;2023-12-20T02:24:02;2.60;;;1.50;;
59974;SDS011;62136;-35.664;-63.766;2023-12-20T02:26:31;3.03;;;1.40;;
59974;SDS011;62136;-35.664;-63.766;2023-12-20T02:28:59;2.95;;;1.40;;
59974;SDS011;62136;-35.664;-63.766;2023-12-20T02:31:27;3.10;;;1.45;;
59974;SDS011;62136;-35.664;-63.766;2023-12-20T02:33:54;2.47;;;1.33;;
59974;SDS011;62136;-35.664;-63.766;2023-12-20T02:36:21;3.08;;;1.60;;
59974;SDS011;62136;-35.664;-63.766;2023-12-20T02:38:48;2.95;;;1.45;;
59974;SDS011;62136;-35.664;-63.766;2023-12-20T02:41:16;3.38;;;1.45;;
59974;SDS011;62136;-35.664;-63.766;2023-12-20T02:43:43;2.40;;;1.20;;
59974;SDS011;62136;-35.664;-63.766;2023-12-20T02:46:13;1.98;;;1.00;;
59974;SDS011;62136;-35.664;-63.766;2023-12-20T02:48:51;2.80;;;1.15;;
59974;SDS011;62136;-35.664;-63.766;2023-12-20T02:51:19;4.18;;;1.73;;
59974;SDS011;62136;-35.664;-63.766;2023-12-20T02:53:46;2.15;;;1.42;;
59974;SDS011;62136;-35.664;-63.766;2023-12-20T02:56:13;2.10;;;1.30;;
59974;SDS011;62136;-35.664;-63.766;2023-12-20T02:58:40;3.33;;;1.40;;
59974;SDS011;62136;-35.664;-63.766;2023-12-20T03:01:07;3.20;;;1.45;;
59974;SDS011;62136;-35.664;-63.766;2023-12-20T03:03:34;3.17;;;1.17;;
59974;SDS011;62136;-35.664;-63.766;2023-12-20T03:06:01;2.03;;;1.15;;
59974;SDS011;62136;-35.664;-63.766;2023-12-20T03:08:28;3.67;;;1.40;;
59974;SDS011;62136;-35.664;-63.766;2023-12-20T03:10:55;3.78;;;1.50;;
59974;SDS011;62136;-35.664;-63.766;2023-12-20T03:13:22;5.22;;;1.63;;
59974;SDS011;62136;-35.664;-63.766;2023-12-20T03:15:49;2.42;;;1.00;;
59974;SDS011;62136;-35.664;-63.766;2023-12-20T03:18:16;3.88;;;1.45;;
59974;SDS011;62136;-35.664;-63.766;2023-12-20T03:20:43;3.88;;;1.52;;
59974;SDS011;62136;-35.664;-63.766;2023-12-20T03:23:10;3.05;;;1.20;;
59974;SDS011;62136;-35.664;-63.766;2023-12-20T03:25:37;3.03;;;1.40;;
59974;SDS011;62136;-35.664;-63.766;2023-12-20T03:28:04;2.35;;;1.40;;
59974;SDS011;62136;-35.664;-63.766;2023-12-20T03:30:31;3.63;;;1.50;;
59974;SDS011;62136;-35.664;-63.766;2023-12-20T03:32:58;4.30;;;1.65;;
59974;SDS011;62136;-35.664;-63.766;2023-12-20T03:35:25;2.88;;;1.15;;
59974;SDS011;62136;-35.664;-63.766;2023-12-20T03:37:52;2.35;;;1.40;;
59974;SDS011;62136;-35.664;-63.766;2023-12-20T03:40:19;2.90;;;1.10;;
59974;SDS011;62136;-35.664;-63.766;2023-12-20T03:42:46;4.05;;;1.50;;
59974;SDS011;62136;-35.664;-63.766;2023-12-20T03:45:13;2.60;;;1.40;;
59974;SDS011;62136;-35.664;-63.766;2023-12-20T03:47:40;2.67;;;1.25;;
59974;SDS011;62136;-35.664;-63.766;2023-12-20T03:50:07;3.25;;;1.27;;
59974;SDS011;62136;-35.664;-63.766;2023-12-20T03:52:34;2.50;;;1.40;;
59974;SDS011;62136;-35.664;-63.766;2023-12-20T03:55:01;2.25;;;1.10;;
59974;SDS011;62136;-35.664;-63.766;2023-12-20T03:57:28;2.92;;;1.17;;
59974;SDS011;62136;-35.664;-63.766;2023-12-20T03:59:55;1.85;;;1.00;;
59974;SDS011;62136;-35.664;-63.766;2023-12-20T04:02:22;4.25;;;1.40;;
59974;SDS011;62136;-35.664;-63.766;2023-12-20T04:04:49;2.60;;;1.42;;
59974;SDS011;62136;-35.664;-63.766;2023-12-20T04:07:21;2.80;;;1.33;;
59974;SDS011;62136;-35.664;-63.766;2023-12-20T04:09:48;1.98;;;1.13;;
59974;SDS011;62136;-35.664;-63.766;2023-12-20T04:12:15;2.38;;;1.20;;
59974;SDS011;62136;-35.664;-63.766;2023-12-20T04:14:42;2.72;;;1.30;;
59974;SDS011;62136;-35.664;-63.766;2023-12-20T04:17:08;4.10;;;1.38;;
59974;SDS011;62136;-35.664;-63.766;2023-12-20T04:19:35;2.65;;;1.10;;
59974;SDS011;62136;-35.664;-63.766;2023-12-20T04:22:02;1.80;;;1.25;;
59974;SDS011;62136;-35.664;-63.766;2023-12-20T04:24:29;2.97;;;1.30;;
59974;SDS011;62136;-35.664;-63.766;2023-12-20T04:26:57;2.17;;;1.00;;
59974;SDS011;62136;-35.664;-63.766;2023-12-20T04:29:24;2.85;;;1.30;;
59974;SDS011;62136;-35.664;-63.766;2023-12-20T04:31:51;2.58;;;1.30;;
59974;SDS011;62136;-35.664;-63.766;2023-12-20T04:34:18;3.55;;;1.13;;
59974;SDS011;62136;-35.664;-63.766;2023-12-20T04:36:45;3.03;;;1.50;;
59974;SDS011;62136;-35.664;-63.766;2023-12-20T04:39:12;3.22;;;1.20;;
59974;SDS011;62136;-35.664;-63.766;2023-12-20T04:41:40;3.60;;;1.40;;
59974;SDS011;62136;-35.664;-63.766;2023-12-20T04:44:07;2.58;;;1.10;;
59974;SDS011;62136;-35.664;-63.766;2023-12-20T04:46:34;4.55;;;1.38;;
59974;SDS011;62136;-35.664;-63.766;2023-12-20T04:49:01;3.88;;;1.55;;
59974;SDS011;62136;-35.664;-63.766;2023-12-20T04:51:28;4.22;;;2.05;;
59974;SDS011;62136;-35.664;-63.766;2023-12-20T04:53:55;2.88;;;1.25;;
59974;SDS011;62136;-35.664;-63.766;2023-12-20T04:56:22;2.55;;;1.20;;
59974;SDS011;62136;-35.664;-63.766;2023-12-20T04:58:49;1.65;;;1.13;;
59974;SDS011;62136;-35.664;-63.766;2023-12-20T05:01:16;4.00;;;1.38;;
59974;SDS011;62136;-35.664;-63.766;2023-12-20T05:03:43;2.63;;;1.38;;
59974;SDS011;62136;-35.664;-63.766;2023-12-20T05:06:10;4.97;;;1.52;;
59974;SDS011;62136;-35.664;-63.766;2023-12-20T05:08:37;3.05;;;1.20;;
59974;SDS011;62136;-35.664;-63.766;2023-12-20T05:11:04;2.25;;;1.00;;
59974;SDS011;62136;-35.664;-63.766;2023-12-20T05:13:31;2.55;;;1.00;;
59974;SDS011;62136;-35.664;-63.766;2023-12-20T05:15:58;2.83;;;1.33;;
59974;SDS011;62136;-35.664;-63.766;2023-12-20T05:18:25;3.83;;;1.50;;
59974;SDS011;62136;-35.664;-63.766;2023-12-20T05:20:52;2.47;;;1.25;;
59974;SDS011;62136;-35.664;-63.766;2023-12-20T05:23:19;2.70;;;1.20;;
59974;SDS011;62136;-35.664;-63.766;2023-12-20T05:25:46;3.28;;;1.52;;
59974;SDS011;62136;-35.664;-63.766;2023-12-20T05:28:14;2.08;;;1.20;;
59974;SDS011;62136;-35.664;-63.766;2023-12-20T05:30:42;1.73;;;1.05;;
59974;SDS011;62136;-35.664;-63.766;2023-12-20T05:33:09;3.38;;;1.40;;
59974;SDS011;62136;-35.664;-63.766;2023-12-20T05:35:36;3.33;;;1.50;;
59974;SDS011;62136;-35.664;-63.766;2023-12-20T05:38:03;3.45;;;1.42;;
59974;SDS011;62136;-35.664;-63.766;2023-12-20T05:40:30;2.50;;;1.20;;
59974;SDS011;62136;-35.664;-63.766;2023-12-20T05:42:57;4.00;;;1.30;;
59974;SDS011;62136;-35.664;-63.766;2023-12-20T05:45:24;2.88;;;1.30;;
59974;SDS011;62136;-35.664;-63.766;2023-12-20T05:47:51;2.90;;;1.38;;
59974;SDS011;62136;-35.664;-63.766;2023-12-20T05:50:19;2.85;;;1.40;;
59974;SDS011;62136;-35.664;-63.766;2023-12-20T05:52:47;3.33;;;1.27;;
59974;SDS011;62136;-35.664;-63.766;2023-12-20T05:55:14;3.28;;;1.30;;
59974;SDS011;62136;-35.664;-63.766;2023-12-20T05:57:41;2.75;;;1.35;;
59974;SDS011;62136;-35.664;-63.766;2023-12-20T06:00:09;4.25;;;1.50;;
59974;SDS011;62136;-35.664;-63.766;2023-12-20T06:02:36;3.13;;;1.25;;
59974;SDS011;62136;-35.664;-63.766;2023-12-20T06:05:06;2.15;;;1.02;;
59974;SDS011;62136;-35.664;-63.766;2023-12-20T06:07:33;4.30;;;1.48;;
59974;SDS011;62136;-35.664;-63.766;2023-12-20T06:10:00;1.75;;;1.30;;
59974;SDS011;62136;-35.664;-63.766;2023-12-20T06:12:27;3.42;;;1.33;;
59974;SDS011;62136;-35.664;-63.766;2023-12-20T06:14:54;1.80;;;1.20;;
59974;SDS011;62136;-35.664;-63.766;2023-12-20T06:17:22;2.50;;;1.35;;
59974;SDS011;62136;-35.664;-63.766;2023-12-20T06:19:49;3.80;;;1.58;;
59974;SDS011;62136;-35.664;-63.766;2023-12-20T06:22:16;3.30;;;1.13;;
59974;SDS011;62136;-35.664;-63.766;2023-12-20T06:24:44;3.25;;;1.42;;
59974;SDS011;62136;-35.664;-63.766;2023-12-20T06:27:11;2.08;;;1.05;;
59974;SDS011;62136;-35.664;-63.766;2023-12-20T06:29:38;2.78;;;1.30;;
59974;SDS011;62136;-35.664;-63.766;2023-12-20T06:32:06;2.35;;;1.20;;
59974;SDS011;62136;-35.664;-63.766;2023-12-20T06:34:33;2.10;;;1.48;;
59974;SDS011;62136;-35.664;-63.766;2023-12-20T06:37:00;3.67;;;1.45;;
59974;SDS011;62136;-35.664;-63.766;2023-12-20T06:39:27;2.47;;;1.17;;
59974;SDS011;62136;-35.664;-63.766;2023-12-20T06:41:56;3.42;;;1.27;;
59974;SDS011;62136;-35.664;-63.766;2023-12-20T06:44:23;3.40;;;1.35;;
59974;SDS011;62136;-35.664;-63.766;2023-12-20T06:46:50;2.60;;;1.25;;
59974;SDS011;62136;-35.664;-63.766;2023-12-20T06:49:17;2.97;;;1.38;;
59974;SDS011;62136;-35.664;-63.766;2023-12-20T06:51:44;4.10;;;1.50;;
59974;SDS011;62136;-35.664;-63.766;2023-12-20T06:54:11;1.83;;;1.15;;
59974;SDS011;62136;-35.664;-63.766;2023-12-20T06:56:38;2.30;;;1.33;;
59974;SDS011;62136;-35.664;-63.766;2023-12-20T06:59:07;1.55;;;1.17;;
59974;SDS011;62136;-35.664;-63.766;2023-12-20T07:01:34;2.35;;;1.13;;
59974;SDS011;62136;-35.664;-63.766;2023-12-20T07:04:01;4.53;;;1.40;;
59974;SDS011;62136;-35.664;-63.766;2023-12-20T07:06:28;2.60;;;1.48;;
59974;SDS011;62136;-35.664;-63.766;2023-12-20T07:08:55;3.17;;;1.27;;
59974;SDS011;62136;-35.664;-63.766;2023-12-20T07:11:22;2.75;;;1.40;;
59974;SDS011;62136;-35.664;-63.766;2023-12-20T07:13:49;2.72;;;1.27;;
59974;SDS011;62136;-35.664;-63.766;2023-12-20T07:16:16;3.95;;;1.20;;
59974;SDS011;62136;-35.664;-63.766;2023-12-20T07:18:43;2.75;;;1.88;;
59974;SDS011;62136;-35.664;-63.766;2023-12-20T07:21:10;2.38;;;1.40;;
59974;SDS011;62136;-35.664;-63.766;2023-12-20T07:23:37;5.07;;;1.65;;
59974;SDS011;62136;-35.664;-63.766;2023-12-20T07:26:04;2.03;;;1.15;;
59974;SDS011;62136;-35.664;-63.766;2023-12-20T07:28:31;2.67;;;1.27;;
59974;SDS011;62136;-35.664;-63.766;2023-12-20T07:30:58;2.20;;;1.10;;
59974;SDS011;62136;-35.664;-63.766;2023-12-20T07:33:25;2.47;;;1.30;;
59974;SDS011;62136;-35.664;-63.766;2023-12-20T07:35:52;2.40;;;1.42;;
59974;SDS011;62136;-35.664;-63.766;2023-12-20T07:38:19;2.50;;;1.40;;
59974;SDS011;62136;-35.664;-63.766;2023-12-20T07:40:46;4.03;;;1.17;;
59974;SDS011;62136;-35.664;-63.766;2023-12-20T07:43:13;3.83;;;1.42;;
59974;SDS011;62136;-35.664;-63.766;2023-12-20T07:45:40;3.60;;;1.45;;
59974;SDS011;62136;-35.664;-63.766;2023-12-20T07:48:07;2.42;;;1.63;;
59974;SDS011;62136;-35.664;-63.766;2023-12-20T07:50:34;2.30;;;1.13;;
59974;SDS011;62136;-35.664;-63.766;2023-12-20T07:53:01;1.98;;;1.30;;
59974;SDS011;62136;-35.664;-63.766;2023-12-20T07:55:28;2.45;;;1.20;;
59974;SDS011;62136;-35.664;-63.766;2023-12-20T07:57:57;2.20;;;1.20;;
59974;SDS011;62136;-35.664;-63.766;2023-12-20T08:00:24;2.70;;;1.20;;
59974;SDS011;62136;-35.664;-63.766;2023-12-20T08:02:51;3.47;;;1.58;;
59974;SDS011;62136;-35.664;-63.766;2023-12-20T08:05:18;2.78;;;1.30;;
59974;SDS011;62136;-35.664;-63.766;2023-12-20T08:07:45;3.67;;;1.20;;
59974;SDS011;62136;-35.664;-63.766;2023-12-20T08:10:12;2.70;;;1.30;;
59974;SDS011;62136;-35.664;-63.766;2023-12-20T08:12:39;4.28;;;1.20;;
59974;SDS011;62136;-35.664;-63.766;2023-12-20T08:15:06;2.75;;;1.30;;
59974;SDS011;62136;-35.664;-63.766;2023-12-20T08:17:33;3.08;;;1.50;;
59974;SDS011;62136;-35.664;-63.766;2023-12-20T08:20:00;3.13;;;1.23;;
59974;SDS011;62136;-35.664;-63.766;2023-12-20T08:22:27;2.10;;;1.40;;
59974;SDS011;62136;-35.664;-63.766;2023-12-20T08:24:54;1.35;;;1.05;;
59974;SDS011;62136;-35.664;-63.766;2023-12-20T08:27:21;3.90;;;1.40;;
59974;SDS011;62136;-35.664;-63.766;2023-12-20T08:29:48;2.17;;;1.13;;
59974;SDS011;62136;-35.664;-63.766;2023-12-20T08:32:16;3.95;;;1.30;;
59974;SDS011;62136;-35.664;-63.766;2023-12-20T08:34:43;2.95;;;1.35;;
59974;SDS011;62136;-35.664;-63.766;2023-12-20T08:37:10;2.63;;;1.50;;
59974;SDS011;62136;-35.664;-63.766;2023-12-20T08:39:37;3.33;;;1.30;;
59974;SDS011;62136;-35.664;-63.766;2023-12-20T08:42:04;3.72;;;1.23;;
59974;SDS011;62136;-35.664;-63.766;2023-12-20T08:44:31;1.98;;;1.48;;
59974;SDS011;62136;-35.664;-63.766;2023-12-20T08:46:58;2.67;;;1.40;;
59974;SDS011;62136;-35.664;-63.766;2023-12-20T08:49:24;1.92;;;1.10;;
59974;SDS011;62136;-35.664;-63.766;2023-12-20T08:51:51;1.08;;;0.98;;
59974;SDS011;62136;-35.664;-63.766;2023-12-20T08:54:18;4.32;;;1.20;;
59974;SDS011;62136;-35.664;-63.766;2023-12-20T08:56:45;1.60;;;1.30;;
59974;SDS011;62136;-35.664;-63.766;2023-12-20T08:59:12;2.22;;;1.00;;
59974;SDS011;62136;-35.664;-63.766;2023-12-20T09:01:39;2.55;;;1.40;;
59974;SDS011;62136;-35.664;-63.766;2023-12-20T09:04:06;2.83;;;1.55;;
59974;SDS011;62136;-35.664;-63.766;2023-12-20T09:06:33;2.53;;;1.05;;
59974;SDS011;62136;-35.664;-63.766;2023-12-20T09:09:00;4.20;;;1.10;;
59974;SDS011;62136;-35.664;-63.766;2023-12-20T09:11:28;2.67;;;1.38;;
59974;SDS011;62136;-35.664;-63.766;2023-12-20T09:13:55;1.52;;;0.98;;
59974;SDS011;62136;-35.664;-63.766;2023-12-20T09:16:22;3.17;;;1.10;;
59974;SDS011;62136;-35.664;-63.766;2023-12-20T09:18:48;1.45;;;1.00;;
59974;SDS011;62136;-35.664;-63.766;2023-12-20T09:21:17;1.88;;;0.98;;
59974;SDS011;62136;-35.664;-63.766;2023-12-20T09:23:44;2.47;;;1.27;;
59974;SDS011;62136;-35.664;-63.766;2023-12-20T09:26:11;2.20;;;1.40;;
59974;SDS011;62136;-35.664;-63.766;2023-12-20T09:28:38;2.25;;;1.00;;
59974;SDS011;62136;-35.664;-63.766;2023-12-20T09:31:06;2.50;;;1.10;;
59974;SDS011;62136;-35.664;-63.766;2023-12-20T09:33:33;3.92;;;1.15;;
59974;SDS011;62136;-35.664;-63.766;2023-12-20T09:36:00;1.83;;;1.17;;
59974;SDS011;62136;-35.664;-63.766;2023-12-20T09:38:27;1.27;;;0.90;;
59974;SDS011;62136;-35.664;-63.766;2023-12-20T09:40:54;1.98;;;1.40;;
59974;SDS011;62136;-35.664;-63.766;2023-12-20T09:43:22;2.78;;;1.35;;
59974;SDS011;62136;-35.664;-63.766;2023-12-20T09:45:52;2.63;;;1.33;;
59974;SDS011;62136;-35.664;-63.766;2023-12-20T09:48:20;2.28;;;1.30;;
59974;SDS011;62136;-35.664;-63.766;2023-12-20T09:50:47;2.40;;;1.48;;
59974;SDS011;62136;-35.664;-63.766;2023-12-20T09:53:14;2.85;;;1.38;;
59974;SDS011;62136;-35.664;-63.766;2023-12-20T09:55:43;3.35;;;1.10;;
59974;SDS011;62136;-35.664;-63.766;2023-12-20T09:58:10;2.72;;;1.00;;
59974;SDS011;62136;-35.664;-63.766;2023-12-20T10:00:37;2.55;;;1.20;;
59974;SDS011;62136;-35.664;-63.766;2023-12-20T10:03:05;1.77;;;1.02;;
59974;SDS011;62136;-35.664;-63.766;2023-12-20T10:05:33;3.70;;;1.40;;
59974;SDS011;62136;-35.664;-63.766;2023-12-20T10:08:01;3.60;;;1.27;;
59974;SDS011;62136;-35.664;-63.766;2023-12-20T10:10:28;2.92;;;1.45;;
59974;SDS011;62136;-35.664;-63.766;2023-12-20T10:13:05;2.25;;;1.00;;
59974;SDS011;62136;-35.664;-63.766;2023-12-20T10:15:36;3.05;;;1.23;;
59974;SDS011;62136;-35.664;-63.766;2023-12-20T10:18:04;4.88;;;1.30;;
59974;SDS011;62136;-35.664;-63.766;2023-12-20T10:20:32;3.03;;;1.10;;
59974;SDS011;62136;-35.664;-63.766;2023-12-20T10:22:59;3.05;;;1.13;;
59974;SDS011;62136;-35.664;-63.766;2023-12-20T10:25:26;1.77;;;1.02;;
59974;SDS011;62136;-35.664;-63.766;2023-12-20T10:28:12;4.07;;;1.55;;
59974;SDS011;62136;-35.664;-63.766;2023-12-20T10:30:45;2.90;;;1.10;;
59974;SDS011;62136;-35.664;-63.766;2023-12-20T10:33:12;3.42;;;1.48;;
59974;SDS011;62136;-35.664;-63.766;2023-12-20T10:35:39;2.78;;;1.40;;
59974;SDS011;62136;-35.664;-63.766;2023-12-20T10:38:07;4.38;;;1.42;;
59974;SDS011;62136;-35.664;-63.766;2023-12-20T10:40:34;3.55;;;1.42;;
59974;SDS011;62136;-35.664;-63.766;2023-12-20T10:43:02;2.78;;;1.45;;
59974;SDS011;62136;-35.664;-63.766;2023-12-20T10:45:30;3.20;;;1.65;;
59974;SDS011;62136;-35.664;-63.766;2023-12-20T10:48:01;3.38;;;1.30;;
59974;SDS011;62136;-35.664;-63.766;2023-12-20T10:50:29;2.42;;;1.23;;
59974;SDS011;62136;-35.664;-63.766;2023-12-20T10:52:57;4.57;;;1.10;;
59974;SDS011;62136;-35.664;-63.766;2023-12-20T10:55:25;4.18;;;1.15;;
59974;SDS011;62136;-35.664;-63.766;2023-12-20T10:57:53;2.05;;;1.15;;
59974;SDS011;62136;-35.664;-63.766;2023-12-20T11:00:35;3.45;;;1.40;;
59974;SDS011;62136;-35.664;-63.766;2023-12-20T11:03:10;2.75;;;1.45;;
59974;SDS011;62136;-35.664;-63.766;2023-12-20T11:05:42;2.50;;;1.48;;
59974;SDS011;62136;-35.664;-63.766;2023-12-20T11:11:18;3.50;;;1.70;;
59974;SDS011;62136;-35.664;-63.766;2023-12-20T11:13:55;4.40;;;1.52;;
59974;SDS011;62136;-35.664;-63.766;2023-12-20T11:16:37;4.93;;;1.77;;
59974;SDS011;62136;-35.664;-63.766;2023-12-20T11:19:05;4.90;;;1.35;;
59974;SDS011;62136;-35.664;-63.766;2023-12-20T11:21:32;6.97;;;1.70;;
59974;SDS011;62136;-35.664;-63.766;2023-12-20T11:23:59;8.73;;;1.58;;
59974;SDS011;62136;-35.664;-63.766;2023-12-20T11:26:28;4.57;;;1.70;;
59974;SDS011;62136;-35.664;-63.766;2023-12-20T11:34:51;3.80;;;1.38;;
59974;SDS011;62136;-35.664;-63.766;2023-12-20T11:37:25;6.03;;;1.67;;
59974;SDS011;62136;-35.664;-63.766;2023-12-20T11:40:00;3.70;;;1.50;;
59974;SDS011;62136;-35.664;-63.766;2023-12-20T11:42:42;4.70;;;1.60;;
59974;SDS011;62136;-35.664;-63.766;2023-12-20T11:45:11;3.92;;;1.38;;
59974;SDS011;62136;-35.664;-63.766;2023-12-20T11:47:48;3.05;;;1.27;;
59974;SDS011;62136;-35.664;-63.766;2023-12-20T11:50:34;4.22;;;1.65;;
59974;SDS011;62136;-35.664;-63.766;2023-12-20T11:53:01;7.05;;;1.80;;
59974;SDS011;62136;-35.664;-63.766;2023-12-20T11:55:29;7.90;;;2.03;;
59974;SDS011;62136;-35.664;-63.766;2023-12-20T11:57:56;5.15;;;1.17;;
59974;SDS011;62136;-35.664;-63.766;2023-12-20T12:00:24;4.22;;;1.25;;
59974;SDS011;62136;-35.664;-63.766;2023-12-20T12:02:55;5.50;;;1.60;;
59974;SDS011;62136;-35.664;-63.766;2023-12-20T12:05:27;5.40;;;1.40;;
59974;SDS011;62136;-35.664;-63.766;2023-12-20T12:07:54;4.55;;;1.38;;
59974;SDS011;62136;-35.664;-63.766;2023-12-20T12:10:22;17.55;;;2.25;;
59974;SDS011;62136;-35.664;-63.766;2023-12-20T12:12:49;5.45;;;1.70;;
59974;SDS011;62136;-35.664;-63.766;2023-12-20T12:15:16;7.53;;;1.60;;
59974;SDS011;62136;-35.664;-63.766;2023-12-20T12:17:43;8.57;;;1.67;;
59974;SDS011;62136;-35.664;-63.766;2023-12-20T12:20:19;5.65;;;1.63;;
59974;SDS011;62136;-35.664;-63.766;2023-12-20T12:22:57;5.40;;;1.45;;
59974;SDS011;62136;-35.664;-63.766;2023-12-20T12:25:25;5.15;;;1.38;;
59974;SDS011;62136;-35.664;-63.766;2023-12-20T12:27:53;4.82;;;1.67;;
59974;SDS011;62136;-35.664;-63.766;2023-12-20T12:30:20;4.75;;;1.45;;
59974;SDS011;62136;-35.664;-63.766;2023-12-20T12:32:47;4.90;;;1.30;;
59974;SDS011;62136;-35.664;-63.766;2023-12-20T12:35:14;1.65;;;1.10;;
59974;SDS011;62136;-35.664;-63.766;2023-12-20T12:37:41;3.92;;;1.33;;
59974;SDS011;62136;-35.664;-63.766;2023-12-20T12:40:12;2.42;;;1.10;;
59974;SDS011;62136;-35.664;-63.766;2023-12-20T12:42:41;5.07;;;1.75;;
59974;SDS011;62136;-35.664;-63.766;2023-12-20T12:45:10;7.28;;;1.42;;
59974;SDS011;62136;-35.664;-63.766;2023-12-20T12:47:37;7.32;;;2.25;;
59974;SDS011;62136;-35.664;-63.766;2023-12-20T12:50:05;7.10;;;1.52;;
59974;SDS011;62136;-35.664;-63.766;2023-12-20T12:52:32;3.92;;;1.08;;
59974;SDS011;62136;-35.664;-63.766;2023-12-20T12:55:00;2.97;;;1.48;;
59974;SDS011;62136;-35.664;-63.766;2023-12-20T12:57:30;4.53;;;1.50;;
59974;SDS011;62136;-35.664;-63.766;2023-12-20T12:59:57;4.75;;;1.70;;
59974;SDS011;62136;-35.664;-63.766;2023-12-20T13:02:25;3.33;;;1.23;;
59974;SDS011;62136;-35.664;-63.766;2023-12-20T13:04:52;4.40;;;1.25;;
59974;SDS011;62136;-35.664;-63.766;2023-12-20T13:07:19;4.53;;;1.30;;
59974;SDS011;62136;-35.664;-63.766;2023-12-20T13:09:46;4.78;;;1.48;;
59974;SDS011;62136;-35.664;-63.766;2023-12-20T13:12:13;3.50;;;1.77;;
59974;SDS011;62136;-35.664;-63.766;2023-12-20T13:14:40;5.78;;;3.30;;
59974;SDS011;62136;-35.664;-63.766;2023-12-20T13:17:08;5.13;;;3.47;;
59974;SDS011;62136;-35.664;-63.766;2023-12-20T13:19:36;7.65;;;4.50;;
59974;SDS011;62136;-35.664;-63.766;2023-12-20T13:22:03;7.35;;;4.95;;
59974;SDS011;62136;-35.664;-63.766;2023-12-20T13:24:34;8.48;;;4.57;;
59974;SDS011;62136;-35.664;-63.766;2023-12-20T13:27:01;7.80;;;4.68;;
59974;SDS011;62136;-35.664;-63.766;2023-12-20T13:29:28;7.63;;;5.18;;
59974;SDS011;62136;-35.664;-63.766;2023-12-20T13:31:55;9.65;;;5.75;;
59974;SDS011;62136;-35.664;-63.766;2023-12-20T13:34:23;11.70;;;7.32;;
59974;SDS011;62136;-35.664;-63.766;2023-12-20T13:36:50;15.25;;;9.25;;
59974;SDS011;62136;-35.664;-63.766;2023-12-20T13:39:17;14.68;;;10.40;;
59974;SDS011;62136;-35.664;-63.766;2023-12-20T13:41:44;15.10;;;12.77;;
59974;SDS011;62136;-35.664;-63.766;2023-12-20T13:44:11;17.85;;;13.35;;
59974;SDS011;62136;-35.664;-63.766;2023-12-20T13:46:38;15.95;;;12.52;;
59974;SDS011;62136;-35.664;-63.766;2023-12-20T13:49:06;16.63;;;12.88;;
59974;SDS011;62136;-35.664;-63.766;2023-12-20T13:51:33;16.73;;;13.05;;
59974;SDS011;62136;-35.664;-63.766;2023-12-20T13:54:01;18.65;;;15.00;;
59974;SDS011;62136;-35.664;-63.766;2023-12-20T13:56:37;43.30;;;39.15;;
59974;SDS011;62136;-35.664;-63.766;2023-12-20T13:59:04;50.97;;;46.25;;
59974;SDS011;62136;-35.664;-63.766;2023-12-20T14:01:35;56.22;;;51.08;;
59974;SDS011;62136;-35.664;-63.766;2023-12-20T14:04:02;61.50;;;55.58;;
59974;SDS011;62136;-35.664;-63.766;2023-12-20T14:06:29;62.40;;;56.75;;
59974;SDS011;62136;-35.664;-63.766;2023-12-20T14:08:56;61.17;;;55.72;;
59974;SDS011;62136;-35.664;-63.766;2023-12-20T14:11:26;65.13;;;59.25;;
59974;SDS011;62136;-35.664;-63.766;2023-12-20T14:13:53;62.22;;;56.88;;
59974;SDS011;62136;-35.664;-63.766;2023-12-20T14:16:24;63.45;;;57.83;;
59974;SDS011;62136;-35.664;-63.766;2023-12-20T14:18:51;91.38;;;83.53;;
59974;SDS011;62136;-35.664;-63.766;2023-12-20T14:21:19;96.88;;;88.80;;
59974;SDS011;62136;-35.664;-63.766;2023-12-20T14:23:46;93.18;;;85.38;;